createdAt,value
2022-12-14T00:01:35.716Z,-5.42
2022-12-14T00:04:02.041Z,-5.36
2022-12-14T00:06:29.820Z,-5.34
2022-12-14T00:08:58.577Z,-5.30
2022-12-14T00:11:25.582Z,-5.39
2022-12-14T00:13:53.681Z,-5.36
2022-12-14T00:16:20.160Z,-5.33
2022-12-14T00:18:49.335Z,-5.33
2022-12-14T00:21:15.746Z,-5.31
2022-12-14T00:23:44.776Z,-5.25
2022-12-14T00:26:12.814Z,-5.24
2022-12-14T00:28:39.535Z,-5.24
2022-12-14T00:31:06.316Z,-5.18
2022-12-14T00:33:33.033Z,-5.18
2022-12-14T00:35:59.638Z,-5.17
2022-12-14T00:38:26.498Z,-5.17
2022-12-14T00:40:53.601Z,-5.22
2022-12-14T00:43:20.040Z,-5.19
2022-12-14T00:45:46.630Z,-5.20
2022-12-14T00:48:13.720Z,-5.28
2022-12-14T00:50:40.542Z,-5.37
2022-12-14T00:53:09.727Z,-5.33
2022-12-14T00:55:39.722Z,-5.23
2022-12-14T00:58:06.638Z,-5.21
2022-12-14T01:00:33.524Z,-5.28
2022-12-14T01:02:59.929Z,-5.22
2022-12-14T01:05:26.311Z,-5.17
2022-12-14T01:07:52.708Z,-5.10
2022-12-14T01:10:19.027Z,-5.02
2022-12-14T01:12:45.581Z,-4.99
2022-12-14T01:15:11.957Z,-4.99
2022-12-14T01:17:38.351Z,-5.02
2022-12-14T01:20:05.047Z,-4.96
2022-12-14T01:22:31.410Z,-4.98
2022-12-14T01:24:57.808Z,-5.19
2022-12-14T01:27:24.174Z,-5.10
2022-12-14T01:29:50.564Z,-5.02
2022-12-14T01:32:17.065Z,-5.10
2022-12-14T01:34:43.379Z,-5.08
2022-12-14T01:37:09.741Z,-5.02
2022-12-14T01:39:36.128Z,-5.09
2022-12-14T01:42:02.609Z,-5.05
2022-12-14T01:44:28.929Z,-5.05
2022-12-14T01:46:58.003Z,-4.95
2022-12-14T01:49:24.572Z,-4.89
2022-12-14T01:51:58.365Z,-4.87
2022-12-14T01:54:26.699Z,-4.99
2022-12-14T01:56:53.685Z,-4.98
2022-12-14T01:59:24.388Z,-4.98
2022-12-14T02:01:51.224Z,-5.01
2022-12-14T02:04:18.520Z,-4.99
2022-12-14T02:06:47.613Z,-5.00
2022-12-14T02:09:16.690Z,-4.91
2022-12-14T02:11:48.932Z,-4.86
2022-12-14T02:14:15.419Z,-5.01
2022-12-14T02:16:41.835Z,-4.71
2022-12-14T02:19:08.197Z,-4.70
2022-12-14T02:21:56.159Z,-4.83
2022-12-14T02:24:31.621Z,-4.96
2022-12-14T02:27:02.588Z,-4.76
2022-12-14T02:29:41.304Z,-4.64
2022-12-14T02:32:10.454Z,-4.80
2022-12-14T02:34:55.379Z,-4.96
2022-12-14T02:37:28.424Z,-4.82
2022-12-14T02:40:10.170Z,-4.75
2022-12-14T02:42:54.711Z,-4.85
2022-12-14T02:45:24.142Z,-4.84
2022-12-14T02:47:54.586Z,-4.70
2022-12-14T02:50:29.582Z,-4.84
2022-12-14T02:52:55.905Z,-4.77
2022-12-14T02:55:27.487Z,-4.78
2022-12-14T02:57:53.841Z,-4.83
2022-12-14T03:00:20.303Z,-4.72
2022-12-14T03:02:48.096Z,-4.78
2022-12-14T03:05:14.571Z,-4.83
2022-12-14T03:07:40.993Z,-4.86
2022-12-14T03:10:16.714Z,-4.86
2022-12-14T03:12:45.018Z,-4.77
2022-12-14T03:15:12.546Z,-4.66
2022-12-14T03:17:40.234Z,-4.80
2022-12-14T03:20:10.115Z,-4.64
2022-12-14T03:22:44.664Z,-4.81
2022-12-14T03:25:20.684Z,-4.67
2022-12-14T03:27:54.810Z,-4.85
2022-12-14T03:30:44.370Z,-4.63
2022-12-14T03:33:11.663Z,-4.62
2022-12-14T03:35:39.773Z,-4.76
2022-12-14T03:38:29.225Z,-4.56
2022-12-14T03:41:02.711Z,-4.59
2022-12-14T03:43:38.042Z,-4.76
2022-12-14T03:46:15.641Z,-4.81
2022-12-14T03:48:48.531Z,-4.67
2022-12-14T03:51:22.911Z,-4.58
2022-12-14T03:54:01.577Z,-4.76
2022-12-14T03:56:51.257Z,-4.49
2022-12-14T03:59:39.589Z,-4.57
2022-12-14T04:02:06.063Z,-4.57
2022-12-14T04:04:32.489Z,-4.58
2022-12-14T04:07:14.229Z,-4.55
2022-12-14T04:10:29.872Z,-4.52
2022-12-14T04:13:17.840Z,-4.69
2022-12-14T04:16:03.417Z,-4.82
2022-12-14T04:18:59.220Z,-4.61
2022-12-14T04:21:32.520Z,-4.30
2022-12-14T04:24:38.808Z,-4.63
2022-12-14T04:27:09.925Z,-4.52
2022-12-14T04:29:57.741Z,-4.55
2022-12-14T04:32:30.356Z,-4.22
2022-12-14T04:35:00.950Z,-4.66
2022-12-14T04:37:28.666Z,-4.49
2022-12-14T04:39:57.824Z,-4.55
2022-12-14T04:42:28.920Z,-4.35
2022-12-14T04:44:58.830Z,-4.48
2022-12-14T04:47:28.757Z,-4.47
2022-12-14T04:50:03.626Z,-4.56
2022-12-14T04:52:29.947Z,-4.38
2022-12-14T04:54:56.305Z,-4.52
2022-12-14T04:57:36.382Z,-4.52
2022-12-14T05:00:03.961Z,-4.50
2022-12-14T05:02:53.641Z,-4.58
2022-12-14T05:05:31.888Z,-4.53
2022-12-14T05:08:01.205Z,-4.45
2022-12-14T05:10:41.212Z,-4.42
2022-12-14T05:13:30.901Z,-4.51
2022-12-14T05:15:58.698Z,-4.40
2022-12-14T05:18:25.714Z,-4.48
2022-12-14T05:20:52.134Z,-4.57
2022-12-14T05:23:24.919Z,-4.42
2022-12-14T05:25:51.489Z,-4.40
2022-12-14T05:28:17.838Z,-4.48
2022-12-14T05:30:48.883Z,-4.44
2022-12-14T05:33:19.817Z,-4.49
2022-12-14T05:35:51.626Z,-4.37
2022-12-14T05:38:18.030Z,-4.35
2022-12-14T05:40:44.383Z,-4.13
2022-12-14T05:43:12.306Z,-4.19
2022-12-14T05:45:38.717Z,-4.36
2022-12-14T05:48:05.336Z,-4.28
2022-12-14T05:50:31.708Z,-4.54
2022-12-14T05:52:58.045Z,-4.45
2022-12-14T05:55:24.429Z,-4.37
2022-12-14T05:57:50.895Z,-4.40
2022-12-14T06:00:18.415Z,-4.40
2022-12-14T06:02:45.023Z,-4.52
2022-12-14T06:05:11.413Z,-4.52
2022-12-14T06:07:37.867Z,-4.54
2022-12-14T06:10:04.652Z,-4.53
2022-12-14T06:12:31.077Z,-4.48
2022-12-14T06:14:57.405Z,-4.42
2022-12-14T06:17:23.732Z,-4.36
2022-12-14T06:19:51.653Z,-4.43
2022-12-14T06:22:18.582Z,-4.57
2022-12-14T06:24:47.010Z,-4.48
2022-12-14T06:27:13.338Z,-4.30
2022-12-14T06:29:39.661Z,-4.44
2022-12-14T06:32:06.671Z,-4.50
2022-12-14T06:34:38.507Z,-4.35
2022-12-14T06:37:06.314Z,-4.48
2022-12-14T06:39:32.940Z,-4.19
2022-12-14T06:41:59.306Z,-4.23
2022-12-14T06:44:27.733Z,-4.20
2022-12-14T06:46:54.130Z,-4.49
2022-12-14T06:49:20.504Z,-4.53
2022-12-14T06:51:46.972Z,-4.51
2022-12-14T06:54:14.345Z,-4.41
2022-12-14T06:56:40.898Z,-4.18
2022-12-14T06:59:08.696Z,-4.58
2022-12-14T07:01:35.757Z,-4.46
2022-12-14T07:04:02.280Z,-4.41
2022-12-14T07:06:31.941Z,-4.36
2022-12-14T07:08:59.171Z,-4.45
2022-12-14T07:11:26.184Z,-4.48
2022-12-14T07:13:54.957Z,-4.42
2022-12-14T07:16:26.334Z,-4.60
2022-12-14T07:18:53.997Z,-4.33
2022-12-14T07:21:21.035Z,-4.55
2022-12-14T07:23:49.108Z,-4.57
2022-12-14T07:26:17.652Z,-4.50
2022-12-14T07:28:44.375Z,-4.46
2022-12-14T07:31:14.012Z,-4.39
2022-12-14T07:33:40.764Z,-4.43
2022-12-14T07:36:08.409Z,-4.52
2022-12-14T07:38:35.987Z,-4.38
2022-12-14T07:41:06.061Z,-4.24
2022-12-14T07:43:32.639Z,-4.19
2022-12-14T07:46:01.182Z,-4.13
2022-12-14T07:48:28.863Z,-4.06
2022-12-14T07:50:55.454Z,-4.29
2022-12-14T07:53:21.774Z,-4.16
2022-12-14T07:55:49.104Z,-4.20
2022-12-14T07:58:17.579Z,-4.26
2022-12-14T08:00:45.000Z,-4.20
2022-12-14T08:03:11.693Z,-4.16
2022-12-14T08:05:38.684Z,-4.03
2022-12-14T08:08:06.048Z,-4.15
2022-12-14T08:10:40.528Z,-3.96
2022-12-14T08:13:07.093Z,-3.98
2022-12-14T08:15:36.713Z,-3.59
2022-12-14T08:18:03.281Z,-3.81
2022-12-14T08:20:30.793Z,-3.79
2022-12-14T08:22:57.198Z,-3.77
2022-12-14T08:25:23.664Z,-3.84
2022-12-14T08:27:50.051Z,-3.91
2022-12-14T08:30:16.566Z,-3.86
2022-12-14T08:32:42.961Z,-3.77
2022-12-14T08:35:09.471Z,-3.76
2022-12-14T08:37:35.829Z,-4.15
2022-12-14T08:40:03.893Z,-4.01
2022-12-14T08:42:36.058Z,-4.14
2022-12-14T08:45:02.769Z,-3.95
2022-12-14T08:47:29.158Z,-3.74
2022-12-14T08:49:55.630Z,-3.87
2022-12-14T08:52:22.380Z,-3.70
2022-12-14T08:54:48.748Z,-3.51
2022-12-14T08:57:15.107Z,-3.60
2022-12-14T09:02:28.162Z,-3.53
2022-12-14T09:04:54.769Z,-3.62
2022-12-14T09:07:21.175Z,-3.50
2022-12-14T09:09:49.672Z,-3.25
2022-12-14T09:12:16.180Z,-3.57
2022-12-14T09:14:46.544Z,-3.33
2022-12-14T09:17:16.414Z,-3.33
2022-12-14T09:19:49.947Z,-3.47
2022-12-14T09:22:16.374Z,-3.41
2022-12-14T09:24:42.784Z,-3.34
2022-12-14T09:27:09.232Z,-3.18
2022-12-14T09:29:36.124Z,-3.33
2022-12-14T09:32:02.497Z,-3.23
2022-12-14T09:34:35.836Z,-3.31
2022-12-14T09:37:07.395Z,-3.05
2022-12-14T09:39:34.226Z,-3.02
2022-12-14T09:42:17.853Z,-2.97
2022-12-14T09:44:54.388Z,-3.02
2022-12-14T09:47:25.085Z,-3.17
2022-12-14T09:49:54.290Z,-3.09
2022-12-14T09:52:23.108Z,-2.84
2022-12-14T09:54:50.394Z,-3.05
2022-12-14T09:57:33.280Z,-3.17
2022-12-14T09:59:59.656Z,-2.86
2022-12-14T10:02:47.850Z,-2.71
2022-12-14T10:05:17.380Z,-3.05
2022-12-14T10:07:47.418Z,-2.91
2022-12-14T10:10:16.595Z,-3.10
2022-12-14T10:12:59.205Z,-3.24
2022-12-14T10:15:40.181Z,-3.13
2022-12-14T10:18:57.586Z,-3.27
2022-12-14T10:21:16.015Z,-3.11
2022-12-14T10:23:48.608Z,-3.03
2022-12-14T10:26:18.630Z,-3.13
2022-12-14T10:29:00.992Z,-3.11
2022-12-14T10:31:30.914Z,-2.74
2022-12-14T10:34:05.365Z,-3.10
2022-12-14T10:36:39.146Z,-3.28
2022-12-14T10:39:20.888Z,-3.21
2022-12-14T10:41:54.667Z,-3.20
2022-12-14T10:44:20.972Z,-3.32
2022-12-14T10:47:10.417Z,-3.29
2022-12-14T10:49:41.685Z,-3.05
2022-12-14T10:52:14.730Z,-3.32
2022-12-14T10:54:49.317Z,-3.35
2022-12-14T10:57:20.100Z,-3.13
2022-12-14T11:00:03.567Z,-3.21
2022-12-14T11:02:39.412Z,-2.80
2022-12-14T11:05:18.813Z,-2.88
2022-12-14T11:07:49.805Z,-2.81
2022-12-14T11:10:25.211Z,-2.74
2022-12-14T11:12:55.055Z,-2.65
2022-12-14T11:15:30.274Z,-2.51
2022-12-14T11:18:16.398Z,-2.71
2022-12-14T11:20:54.086Z,-2.64
2022-12-14T11:23:39.057Z,-2.36
2022-12-14T11:26:20.831Z,-2.50
2022-12-14T11:28:52.384Z,-2.65
2022-12-14T11:31:34.006Z,-2.66
2022-12-14T11:34:01.541Z,-2.64
2022-12-14T11:36:41.124Z,-2.77
2022-12-14T11:39:14.736Z,-2.63
2022-12-14T11:41:48.037Z,-2.68
2022-12-14T11:44:14.516Z,-2.75
2022-12-14T11:46:47.088Z,-2.57
2022-12-14T11:49:25.650Z,-2.55
2022-12-14T11:52:04.112Z,-2.47
2022-12-14T11:54:33.920Z,-2.54
2022-12-14T11:57:10.154Z,-2.60
2022-12-14T11:59:38.479Z,-2.87
2022-12-14T12:02:15.360Z,-2.59
2022-12-14T12:04:46.636Z,-2.73
2022-12-14T12:07:21.446Z,-3.00
2022-12-14T12:09:50.002Z,-3.02
2022-12-14T12:12:20.341Z,-3.01
2022-12-14T12:14:47.864Z,-3.17
2022-12-14T12:17:26.013Z,-2.83
2022-12-14T12:19:52.497Z,-2.81
2022-12-14T12:22:20.400Z,-2.55
2022-12-14T12:25:24.306Z,-2.47
2022-12-14T12:27:43.963Z,-2.30
2022-12-14T12:30:21.993Z,-2.31
2022-12-14T12:32:51.275Z,-2.27
2022-12-14T12:35:20.347Z,-2.27
2022-12-14T12:37:46.660Z,-2.37
2022-12-14T12:40:16.457Z,-2.17
2022-12-14T12:42:53.076Z,-2.22
2022-12-14T12:45:28.849Z,-2.14
2022-12-14T12:48:12.653Z,-2.23
2022-12-14T12:50:59.295Z,-2.16
2022-12-14T12:53:30.293Z,-2.22
2022-12-14T12:56:14.794Z,-2.28
2022-12-14T12:58:49.056Z,-2.06
2022-12-14T13:01:19.082Z,-2.16
2022-12-14T13:03:47.934Z,-2.29
2022-12-14T13:06:32.943Z,-2.12
2022-12-14T13:09:11.773Z,-2.44
2022-12-14T13:11:39.681Z,-2.34
2022-12-14T13:14:26.356Z,-2.46
2022-12-14T13:16:54.085Z,-2.56
2022-12-14T13:19:49.751Z,-2.48
2022-12-14T13:22:15.007Z,-2.59
2022-12-14T13:24:42.876Z,-2.46
2022-12-14T13:27:27.782Z,-2.27
2022-12-14T13:30:06.073Z,-2.24
2022-12-14T13:32:37.166Z,-2.41
2022-12-14T13:35:08.203Z,-2.46
2022-12-14T13:37:53.730Z,-2.65
2022-12-14T13:40:23.136Z,-2.52
2022-12-14T13:43:03.239Z,-2.46
2022-12-14T13:45:32.198Z,-2.79
2022-12-14T13:47:58.905Z,-2.72
2022-12-14T13:50:37.156Z,-2.81
2022-12-14T13:53:06.687Z,-2.69
2022-12-14T13:55:35.115Z,-2.66
2022-12-14T13:58:10.227Z,-2.69
2022-12-14T14:00:48.414Z,-2.62
2022-12-14T14:03:33.862Z,-2.62
2022-12-14T14:06:01.557Z,-2.52
2022-12-14T14:08:41.667Z,-2.59
2022-12-14T14:11:39.717Z,-2.72
2022-12-14T14:14:12.689Z,-2.59
2022-12-14T14:16:44.964Z,-2.47
2022-12-14T14:19:11.347Z,-2.74
2022-12-14T14:22:14.317Z,-2.49
2022-12-14T14:24:51.121Z,-2.49
2022-12-14T14:27:22.407Z,-2.57
2022-12-14T14:29:49.933Z,-2.68
2022-12-14T14:32:34.786Z,-2.87
2022-12-14T14:35:03.088Z,-2.83
2022-12-14T14:37:34.430Z,-2.85
2022-12-14T14:42:45.585Z,-2.74
2022-12-14T14:45:26.270Z,-2.70
2022-12-14T14:48:15.325Z,-2.66
2022-12-14T14:50:42.746Z,-2.87
2022-12-14T14:53:18.380Z,-2.82
2022-12-14T14:55:58.551Z,-2.87
2022-12-14T14:58:27.555Z,-2.91
2022-12-14T15:00:54.978Z,-2.86
2022-12-14T15:03:25.721Z,-2.78
2022-12-14T15:05:52.257Z,-2.74
2022-12-14T15:08:32.559Z,-2.88
2022-12-14T15:11:02.583Z,-2.84
2022-12-14T15:13:32.583Z,-2.81
2022-12-14T15:15:59.462Z,-2.84
2022-12-14T15:18:25.886Z,-2.94
2022-12-14T15:20:59.128Z,-2.85
2022-12-14T15:23:27.694Z,-2.89
2022-12-14T15:25:58.650Z,-2.88
2022-12-14T15:28:26.329Z,-2.84
2022-12-14T15:30:54.975Z,-2.83
2022-12-14T15:33:28.919Z,-2.90
2022-12-14T15:36:02.063Z,-2.80
2022-12-14T15:38:31.757Z,-2.86
2022-12-14T15:40:59.442Z,-2.94
2022-12-14T15:43:26.737Z,-2.84
2022-12-14T15:45:56.013Z,-2.82
2022-12-14T15:48:24.592Z,-2.81
2022-12-14T15:50:54.325Z,-2.95
2022-12-14T15:53:40.963Z,-2.87
2022-12-14T15:56:26.087Z,-2.85
2022-12-14T15:58:54.140Z,-2.81
2022-12-14T16:01:20.749Z,-2.80
2022-12-14T16:03:49.241Z,-2.85
2022-12-14T16:06:17.952Z,-2.96
2022-12-14T16:08:53.208Z,-2.92
2022-12-14T16:11:22.879Z,-3.05
2022-12-14T16:13:51.062Z,-3.09
2022-12-14T16:16:17.577Z,-2.96
2022-12-14T16:18:50.973Z,-2.93
2022-12-14T16:21:29.356Z,-2.92
2022-12-14T16:23:57.650Z,-2.99
2022-12-14T16:26:25.740Z,-2.95
2022-12-14T16:29:10.706Z,-2.88
2022-12-14T16:31:37.405Z,-2.83
2022-12-14T16:34:08.694Z,-2.87
2022-12-14T16:36:36.758Z,-2.83
2022-12-14T16:39:05.342Z,-2.79
2022-12-14T16:41:36.312Z,-2.78
2022-12-14T16:44:04.678Z,-2.85
2022-12-14T16:46:31.749Z,-2.79
2022-12-14T16:49:19.357Z,-2.75
2022-12-14T16:52:06.407Z,-2.70
2022-12-14T16:54:33.729Z,-2.65
2022-12-14T16:57:01.667Z,-2.67
2022-12-14T16:59:30.329Z,-2.57
2022-12-14T17:01:56.910Z,-2.60
2022-12-14T17:04:23.507Z,-2.73
2022-12-14T17:06:54.171Z,-2.57
2022-12-14T17:09:22.100Z,-2.71
2022-12-14T17:11:49.169Z,-2.81
2022-12-14T17:14:16.385Z,-2.73
2022-12-14T17:16:43.061Z,-2.70
2022-12-14T17:19:15.005Z,-2.58
2022-12-14T17:21:42.643Z,-2.71
2022-12-14T17:24:13.880Z,-2.61
2022-12-14T17:26:40.209Z,-2.53
2022-12-14T17:29:06.845Z,-2.54
2022-12-14T17:31:33.349Z,-2.69
2022-12-14T17:33:59.711Z,-2.71
2022-12-14T17:36:26.045Z,-2.61
2022-12-14T17:39:11.408Z,-2.75
2022-12-14T17:41:39.769Z,-2.81
2022-12-14T17:44:06.246Z,-2.81
2022-12-14T17:46:32.728Z,-2.84
2022-12-14T17:49:04.500Z,-2.84
2022-12-14T17:51:39.933Z,-2.68
2022-12-14T17:54:06.617Z,-2.76
2022-12-14T17:56:32.998Z,-2.83
2022-12-14T17:58:59.342Z,-2.83
2022-12-14T18:01:25.895Z,-2.88
2022-12-14T18:03:52.433Z,-2.88
2022-12-14T18:06:18.807Z,-2.85
2022-12-14T18:08:45.679Z,-2.97
2022-12-14T18:11:22.687Z,-3.01
2022-12-14T18:13:49.165Z,-2.89
2022-12-14T18:16:17.132Z,-2.90
2022-12-14T18:18:45.993Z,-2.99
2022-12-14T18:21:19.189Z,-2.91
2022-12-14T18:23:47.124Z,-2.84
2022-12-14T18:26:20.651Z,-2.87
2022-12-14T18:28:48.452Z,-2.94
2022-12-14T18:31:21.205Z,-2.81
2022-12-14T18:33:47.648Z,-2.82
2022-12-14T18:36:14.985Z,-2.78
2022-12-14T18:38:41.772Z,-2.73
2022-12-14T18:41:08.215Z,-2.72
2022-12-14T18:43:43.590Z,-2.83
2022-12-14T18:46:10.944Z,-2.82
2022-12-14T18:48:40.905Z,-2.80
2022-12-14T18:51:07.992Z,-2.83
2022-12-14T18:53:34.752Z,-2.71
2022-12-14T18:56:03.804Z,-2.86
2022-12-14T18:58:30.212Z,-2.75
2022-12-14T19:00:58.128Z,-2.80
2022-12-14T19:03:25.440Z,-2.71
2022-12-14T19:05:51.936Z,-2.67
2022-12-14T19:08:20.307Z,-2.90
2022-12-14T19:10:47.986Z,-2.71
2022-12-14T19:13:20.336Z,-2.73
2022-12-14T19:15:51.405Z,-2.59
2022-12-14T19:18:19.907Z,-2.66
2022-12-14T19:20:46.370Z,-2.61
2022-12-14T19:23:18.199Z,-2.58
2022-12-14T19:25:45.033Z,-2.54
2022-12-14T19:28:30.867Z,-2.59
2022-12-14T19:31:00.590Z,-2.64
2022-12-14T19:33:27.707Z,-2.58
2022-12-14T19:35:54.428Z,-2.61
2022-12-14T19:38:20.829Z,-2.47
2022-12-14T19:41:01.849Z,-2.47
2022-12-14T19:43:28.890Z,-2.62
2022-12-14T19:45:55.821Z,-2.77
2022-12-14T19:48:22.286Z,-2.71
2022-12-14T19:50:57.690Z,-2.60
2022-12-14T19:53:24.325Z,-2.66
2022-12-14T19:55:55.856Z,-2.51
2022-12-14T19:58:24.880Z,-2.53
2022-12-14T20:00:51.898Z,-2.52
2022-12-14T20:03:18.404Z,-2.42
2022-12-14T20:05:51.440Z,-2.37
2022-12-14T20:08:18.083Z,-2.36
2022-12-14T20:10:44.439Z,-2.42
2022-12-14T20:13:10.976Z,-2.39
2022-12-14T20:15:37.873Z,-2.50
2022-12-14T20:18:04.765Z,-2.35
2022-12-14T20:20:34.353Z,-2.42
2022-12-14T20:23:00.862Z,-2.49
2022-12-14T20:25:27.323Z,-2.46
2022-12-14T20:27:54.061Z,-2.46
2022-12-14T20:30:20.545Z,-2.42
2022-12-14T20:32:49.463Z,-2.47
2022-12-14T20:35:18.617Z,-2.48
2022-12-14T20:37:45.589Z,-2.46
2022-12-14T20:40:12.334Z,-2.43
2022-12-14T20:42:38.787Z,-2.49
2022-12-14T20:45:07.419Z,-2.46
2022-12-14T20:47:34.316Z,-2.47
2022-12-14T20:50:00.785Z,-2.52
2022-12-14T20:52:28.308Z,-2.52
2022-12-14T20:54:54.749Z,-2.62
2022-12-14T20:57:21.097Z,-2.64
2022-12-14T20:59:49.647Z,-2.61
2022-12-14T21:02:16.636Z,-2.73
2022-12-14T21:04:43.127Z,-2.83
2022-12-14T21:07:09.569Z,-2.72
2022-12-14T21:09:36.055Z,-2.71
2022-12-14T21:12:20.880Z,-2.69
2022-12-14T21:14:48.225Z,-2.67
2022-12-14T21:17:14.737Z,-2.68
2022-12-14T21:19:41.627Z,-2.66
2022-12-14T21:22:09.988Z,-2.83
2022-12-14T21:25:01.716Z,-2.87
2022-12-14T21:27:24.715Z,-2.85
2022-12-14T21:29:53.656Z,-2.93
2022-12-14T21:32:22.085Z,-2.87
2022-12-14T21:34:48.729Z,-2.74
2022-12-14T21:37:15.478Z,-2.73
2022-12-14T21:39:41.888Z,-2.70
2022-12-14T21:42:10.485Z,-2.82
2022-12-14T21:44:37.501Z,-2.83
2022-12-14T21:47:05.327Z,-2.77
2022-12-14T21:49:31.660Z,-2.79
2022-12-14T21:51:58.488Z,-2.76
2022-12-14T21:54:25.434Z,-2.67
2022-12-14T21:57:10.381Z,-2.61
2022-12-14T21:59:41.691Z,-2.69
2022-12-14T22:02:13.007Z,-2.85
2022-12-14T22:04:40.105Z,-2.80
2022-12-14T22:07:06.820Z,-2.91
2022-12-14T22:09:38.330Z,-2.76
2022-12-14T22:12:04.903Z,-2.62
2022-12-14T22:14:37.919Z,-2.59
2022-12-14T22:17:06.676Z,-2.60
2022-12-14T22:19:39.923Z,-2.57
2022-12-14T22:22:06.618Z,-2.60
2022-12-14T22:24:33.200Z,-2.60
2022-12-14T22:26:59.646Z,-2.60
2022-12-14T22:29:26.151Z,-2.58
2022-12-14T22:31:54.664Z,-2.66
2022-12-14T22:34:22.956Z,-2.59
2022-12-14T22:36:50.477Z,-2.55
2022-12-14T22:39:17.979Z,-2.57
2022-12-14T22:41:44.551Z,-2.59
2022-12-14T22:44:12.697Z,-2.67
2022-12-14T22:46:39.462Z,-2.85
2022-12-14T22:49:06.088Z,-2.80
2022-12-14T22:51:32.493Z,-2.85
2022-12-14T22:53:58.922Z,-2.68
2022-12-14T22:56:34.451Z,-2.61
2022-12-14T22:59:05.049Z,-2.68
2022-12-14T23:01:33.081Z,-2.75
2022-12-14T23:03:59.878Z,-2.78
2022-12-14T23:06:26.423Z,-2.75
2022-12-14T23:09:11.446Z,-2.71
2022-12-14T23:11:56.453Z,-2.73
2022-12-14T23:14:41.361Z,-2.72
2022-12-14T23:17:36.344Z,-2.70
2022-12-14T23:20:21.939Z,-2.83
2022-12-14T23:23:06.716Z,-2.85
2022-12-14T23:25:52.388Z,-3.04
2022-12-14T23:28:37.159Z,-2.88
2022-12-14T23:31:22.374Z,-2.93
2022-12-14T23:34:07.337Z,-2.81
2022-12-14T23:36:52.234Z,-2.80
2022-12-14T23:39:37.284Z,-2.82
2022-12-14T23:42:22.785Z,-2.90
2022-12-14T23:45:07.651Z,-2.83
2022-12-14T23:47:52.427Z,-2.86
2022-12-14T23:50:37.547Z,-2.82
2022-12-14T23:53:26.213Z,-2.96
2022-12-14T23:56:11.150Z,-3.00
2022-12-14T23:58:55.989Z,-3.08
